createdAt,value
2024-02-20T00:00:43.259Z,7.90
2024-02-20T00:03:11.355Z,7.90
2024-02-20T00:05:39.958Z,7.90
2024-02-20T00:08:08.874Z,8.00
2024-02-20T00:10:37.057Z,7.90
2024-02-20T00:13:05.866Z,7.90
2024-02-20T00:15:35.687Z,7.90
2024-02-20T00:18:04.715Z,8.00
2024-02-20T00:20:32.887Z,8.10
2024-02-20T00:23:00.954Z,8.10
2024-02-20T00:25:29.141Z,8.20
2024-02-20T00:27:57.314Z,8.20
2024-02-20T00:30:26.196Z,8.20
2024-02-20T00:32:55.602Z,8.20
2024-02-20T00:35:24.236Z,8.20
2024-02-20T00:37:52.637Z,8.30
2024-02-20T00:40:20.783Z,8.20
2024-02-20T00:42:49.504Z,8.20
2024-02-20T00:45:18.154Z,8.20
2024-02-20T00:47:46.909Z,8.10
2024-02-20T00:50:17.434Z,8.10
2024-02-20T00:52:45.560Z,8.10
2024-02-20T00:55:14.546Z,8.00
2024-02-20T00:57:43.380Z,8.00
2024-02-20T01:00:15.153Z,7.90
2024-02-20T01:02:43.883Z,7.90
2024-02-20T01:05:12.674Z,7.90
2024-02-20T01:07:42.295Z,7.90
2024-02-20T01:10:11.347Z,7.80
2024-02-20T01:12:39.770Z,7.70
2024-02-20T01:15:09.799Z,7.70
2024-02-20T01:17:37.969Z,7.60
2024-02-20T01:20:07.955Z,7.60
2024-02-20T01:22:36.189Z,7.50
2024-02-20T01:25:06.676Z,7.40
2024-02-20T01:27:34.790Z,7.20
2024-02-20T01:30:02.949Z,7.20
2024-02-20T01:32:31.062Z,7.10
2024-02-20T01:34:59.198Z,7.10
2024-02-20T01:37:27.541Z,7.10
2024-02-20T01:39:55.751Z,7.10
2024-02-20T01:42:26.233Z,7.10
2024-02-20T01:44:54.321Z,7.00
2024-02-20T01:47:22.580Z,7.00
2024-02-20T01:49:52.366Z,6.90
2024-02-20T01:52:21.645Z,6.90
2024-02-20T01:54:50.059Z,6.90
2024-02-20T01:57:19.126Z,6.90
2024-02-20T01:59:48.673Z,6.90
2024-02-20T02:02:16.758Z,6.80
2024-02-20T02:04:45.011Z,6.80
2024-02-20T02:07:13.346Z,6.80
2024-02-20T02:09:41.673Z,6.90
2024-02-20T02:12:10.338Z,6.80
2024-02-20T02:14:46.603Z,6.90
2024-02-20T02:17:16.465Z,6.90
2024-02-20T02:19:44.631Z,6.90
2024-02-20T02:22:12.852Z,6.90
2024-02-20T02:24:41.153Z,6.80
2024-02-20T02:27:10.678Z,6.90
2024-02-20T02:29:38.939Z,6.80
2024-02-20T02:32:07.871Z,6.80
2024-02-20T02:34:36.110Z,6.80
2024-02-20T02:37:04.407Z,6.70
2024-02-20T02:39:32.549Z,6.60
2024-02-20T02:42:00.604Z,6.50
2024-02-20T02:44:29.982Z,6.60
2024-02-20T02:46:58.108Z,6.50
2024-02-20T02:49:26.217Z,6.50
2024-02-20T02:51:54.320Z,6.50
2024-02-20T02:54:22.393Z,6.50
2024-02-20T02:56:50.503Z,6.50
2024-02-20T02:59:19.650Z,6.40
2024-02-20T03:01:50.384Z,6.40
2024-02-20T03:04:18.555Z,6.50
2024-02-20T03:06:47.272Z,6.50
2024-02-20T03:09:16.405Z,6.50
2024-02-20T03:11:44.566Z,6.40
2024-02-20T03:14:13.415Z,6.40
2024-02-20T03:16:41.783Z,6.40
2024-02-20T03:19:11.380Z,6.40
2024-02-20T03:21:39.524Z,6.40
2024-02-20T03:24:08.016Z,6.50
2024-02-20T03:26:36.129Z,6.50
2024-02-20T03:29:04.252Z,6.50
2024-02-20T03:31:32.530Z,6.50
2024-02-20T03:34:00.748Z,6.50
2024-02-20T03:36:30.229Z,6.50
2024-02-20T03:38:58.397Z,6.50
2024-02-20T03:41:26.493Z,6.40
2024-02-20T03:43:54.566Z,6.40
2024-02-20T03:46:22.722Z,6.40
2024-02-20T03:48:50.988Z,6.40
2024-02-20T03:51:19.987Z,6.50
2024-02-20T03:53:49.414Z,6.50
2024-02-20T03:56:17.711Z,6.50
2024-02-20T03:58:45.826Z,6.50
2024-02-20T04:01:13.940Z,6.40
2024-02-20T04:03:42.094Z,6.40
2024-02-20T04:06:10.387Z,6.40
2024-02-20T04:08:38.562Z,6.40
2024-02-20T04:11:08.549Z,6.50
2024-02-20T04:13:36.812Z,6.50
2024-02-20T04:16:06.217Z,6.40
2024-02-20T04:18:34.476Z,6.50
2024-02-20T04:21:02.615Z,6.40
2024-02-20T04:23:30.675Z,6.40
2024-02-20T04:25:58.724Z,6.40
2024-02-20T04:28:29.914Z,6.40
2024-02-20T04:30:57.999Z,6.40
2024-02-20T04:33:26.846Z,6.40
2024-02-20T04:35:55.020Z,6.30
2024-02-20T04:38:23.900Z,6.30
2024-02-20T04:40:52.517Z,6.20
2024-02-20T04:43:20.668Z,6.20
2024-02-20T04:45:50.349Z,6.20
2024-02-20T04:48:18.459Z,6.20
2024-02-20T04:50:46.594Z,6.20
2024-02-20T04:53:14.755Z,6.20
2024-02-20T04:55:43.242Z,6.20
2024-02-20T04:58:11.444Z,6.20
2024-02-20T05:00:39.572Z,6.20
2024-02-20T05:03:10.827Z,6.20
2024-02-20T05:05:39.161Z,6.20
2024-02-20T05:08:08.258Z,6.20
2024-02-20T05:10:36.472Z,6.20
2024-02-20T05:13:04.834Z,6.20
2024-02-20T05:15:32.947Z,6.20
2024-02-20T05:18:01.110Z,6.20
2024-02-20T05:20:30.655Z,6.20
2024-02-20T05:22:58.766Z,6.20
2024-02-20T05:25:27.437Z,6.20
2024-02-20T05:27:55.617Z,6.20
2024-02-20T05:30:25.643Z,6.20
2024-02-20T05:32:54.082Z,6.30
2024-02-20T05:35:22.308Z,6.30
2024-02-20T05:37:52.103Z,6.30
2024-02-20T05:40:20.347Z,6.40
2024-02-20T05:42:49.567Z,6.40
2024-02-20T05:45:19.265Z,6.40
2024-02-20T05:47:47.503Z,6.30
2024-02-20T05:50:15.918Z,6.30
2024-02-20T05:52:44.173Z,6.20
2024-02-20T05:55:13.806Z,6.30
2024-02-20T05:57:42.092Z,6.20
2024-02-20T06:00:13.768Z,6.10
2024-02-20T06:02:41.944Z,6.10
2024-02-20T06:05:10.827Z,6.00
2024-02-20T06:07:40.170Z,6.10
2024-02-20T06:10:10.107Z,6.10
2024-02-20T06:12:39.534Z,6.20
2024-02-20T06:15:08.500Z,6.20
2024-02-20T06:17:36.743Z,6.20
2024-02-20T06:20:05.877Z,6.20
2024-02-20T06:22:35.403Z,6.10
2024-02-20T06:25:04.591Z,6.20
2024-02-20T06:27:32.754Z,6.30
2024-02-20T06:30:02.211Z,6.20
2024-02-20T06:32:32.297Z,6.30
2024-02-20T06:35:02.183Z,6.30
2024-02-20T06:37:30.471Z,6.20
2024-02-20T06:39:58.580Z,6.20
2024-02-20T06:42:28.031Z,6.10
2024-02-20T06:44:56.161Z,6.10
2024-02-20T06:47:25.745Z,6.10
2024-02-20T06:49:53.933Z,6.10
2024-02-20T06:52:22.122Z,6.10
2024-02-20T06:54:50.202Z,6.10
2024-02-20T06:57:18.529Z,6.20
2024-02-20T06:59:46.728Z,6.20
2024-02-20T07:02:14.870Z,6.20
2024-02-20T07:04:46.683Z,6.20
2024-02-20T07:07:15.867Z,6.20
2024-02-20T07:09:46.669Z,6.10
2024-02-20T07:12:15.011Z,6.00
2024-02-20T07:14:43.326Z,5.80
2024-02-20T07:17:11.808Z,5.70
2024-02-20T07:19:40.030Z,5.70
2024-02-20T07:22:10.058Z,5.70
2024-02-20T07:24:38.122Z,6.00
2024-02-20T07:27:06.675Z,6.00
2024-02-20T07:29:34.722Z,6.30
2024-02-20T07:32:03.643Z,6.30
2024-02-20T07:34:31.967Z,6.20
2024-02-20T07:37:00.167Z,6.10
2024-02-20T07:39:29.608Z,6.10
2024-02-20T07:41:57.808Z,6.10
2024-02-20T07:44:26.057Z,6.10
2024-02-20T07:46:54.671Z,6.20
2024-02-20T07:49:22.962Z,6.10
2024-02-20T07:51:51.289Z,6.20
2024-02-20T07:54:19.467Z,6.20
2024-02-20T07:56:48.896Z,6.20
2024-02-20T07:59:17.431Z,6.30
2024-02-20T08:01:53.012Z,6.30
2024-02-20T08:04:23.098Z,6.30
2024-02-20T08:06:51.283Z,6.30
2024-02-20T08:09:19.526Z,6.20
2024-02-20T08:11:50.264Z,6.00
2024-02-20T08:14:20.568Z,6.00
2024-02-20T08:16:50.734Z,6.00
2024-02-20T08:19:18.985Z,6.10
2024-02-20T08:21:47.243Z,6.20
2024-02-20T08:24:16.378Z,6.20
2024-02-20T08:26:44.808Z,6.30
2024-02-20T08:29:14.456Z,6.30
2024-02-20T08:31:43.670Z,6.30
2024-02-20T08:34:12.277Z,6.40
2024-02-20T08:36:42.250Z,6.40
2024-02-20T08:39:10.336Z,6.50
2024-02-20T08:41:38.434Z,6.40
2024-02-20T08:44:08.444Z,6.40
2024-02-20T08:46:37.950Z,6.40
2024-02-20T08:49:06.243Z,6.50
2024-02-20T08:51:34.426Z,6.40
2024-02-20T08:54:02.493Z,6.50
2024-02-20T08:56:30.632Z,6.40
2024-02-20T08:58:59.487Z,6.30
2024-02-20T09:01:27.804Z,6.20
2024-02-20T09:03:57.729Z,6.10
2024-02-20T09:06:25.849Z,6.00
2024-02-20T09:08:53.950Z,5.90
2024-02-20T09:11:22.114Z,5.80
2024-02-20T09:13:50.351Z,5.90
2024-02-20T09:16:18.563Z,5.80
2024-02-20T09:18:46.667Z,5.80
2024-02-20T09:21:17.345Z,5.80
2024-02-20T09:23:45.859Z,5.80
2024-02-20T09:26:15.423Z,5.80
2024-02-20T09:28:43.590Z,5.90
2024-02-20T09:31:12.508Z,5.90
2024-02-20T09:33:40.736Z,6.00
2024-02-20T09:36:10.658Z,6.10
2024-02-20T09:38:40.448Z,6.20
2024-02-20T09:41:09.348Z,6.20
2024-02-20T09:43:38.285Z,6.30
2024-02-20T09:46:09.873Z,6.30
2024-02-20T09:48:39.146Z,6.40
2024-02-20T09:51:08.589Z,6.50
2024-02-20T09:53:41.309Z,6.50
2024-02-20T09:56:09.917Z,6.60
2024-02-20T09:58:38.007Z,6.70
2024-02-20T10:01:06.841Z,6.70
2024-02-20T10:03:37.308Z,6.80
2024-02-20T10:06:09.942Z,7.00
2024-02-20T10:08:38.160Z,7.00
2024-02-20T10:11:08.297Z,6.90
2024-02-20T10:13:45.442Z,6.80
2024-02-20T10:16:17.049Z,6.70
2024-02-20T10:18:45.958Z,6.80
2024-02-20T10:21:15.706Z,6.80
2024-02-20T10:23:43.763Z,6.80
2024-02-20T10:26:13.503Z,7.00
2024-02-20T10:28:43.510Z,6.90
2024-02-20T10:31:11.749Z,6.70
2024-02-20T10:33:39.971Z,6.50
2024-02-20T10:36:10.250Z,6.40
2024-02-20T10:38:42.252Z,6.30
2024-02-20T10:41:16.267Z,6.30
2024-02-20T10:43:49.075Z,6.20
2024-02-20T10:46:17.804Z,6.20
2024-02-20T10:48:48.193Z,6.30
2024-02-20T10:51:17.103Z,6.50
2024-02-20T10:53:46.584Z,6.40
2024-02-20T10:56:17.847Z,6.40
2024-02-20T10:58:48.117Z,6.40
2024-02-20T11:01:16.395Z,6.50
2024-02-20T11:03:54.270Z,6.50
2024-02-20T11:06:28.485Z,6.70
2024-02-20T11:09:09.644Z,6.90
2024-02-20T11:11:39.626Z,7.20
2024-02-20T11:14:08.553Z,7.50
2024-02-20T11:16:44.826Z,7.80
2024-02-20T11:19:26.032Z,7.90
2024-02-20T11:21:54.386Z,7.80
2024-02-20T11:24:22.733Z,7.70
2024-02-20T11:27:04.224Z,7.60
2024-02-20T11:29:32.292Z,7.50
2024-02-20T11:32:12.222Z,7.60
2024-02-20T11:34:40.957Z,7.50
2024-02-20T11:37:11.567Z,7.50
2024-02-20T11:39:41.542Z,7.40
2024-02-20T11:42:11.134Z,7.40
2024-02-20T11:44:39.820Z,7.40
2024-02-20T11:47:08.490Z,7.50
2024-02-20T11:49:37.334Z,7.30
2024-02-20T11:52:07.983Z,7.30
2024-02-20T11:54:36.207Z,7.40
2024-02-20T11:57:05.695Z,7.70
2024-02-20T11:59:35.375Z,8.10
2024-02-20T12:02:04.442Z,8.20
2024-02-20T12:04:32.656Z,8.40
2024-02-20T12:07:11.011Z,8.30
2024-02-20T12:09:39.704Z,8.40
2024-02-20T12:12:08.554Z,8.50
2024-02-20T12:14:38.018Z,8.60
2024-02-20T12:17:07.212Z,8.70
2024-02-20T12:19:37.494Z,8.60
2024-02-20T12:22:05.869Z,8.40
2024-02-20T12:24:34.021Z,8.10
2024-02-20T12:27:02.297Z,8.10
2024-02-20T12:29:30.400Z,8.10
2024-02-20T12:31:59.816Z,8.20
2024-02-20T12:34:34.230Z,8.30
2024-02-20T12:37:09.355Z,8.20
2024-02-20T12:39:37.603Z,8.10
2024-02-20T12:42:06.919Z,8.00
2024-02-20T12:44:37.932Z,7.90
2024-02-20T12:47:08.256Z,7.80
2024-02-20T12:49:36.503Z,7.70
2024-02-20T12:52:05.082Z,7.60
2024-02-20T12:54:33.204Z,7.50
2024-02-20T12:57:01.309Z,7.40
2024-02-20T12:59:29.857Z,7.30
2024-02-20T13:01:58.015Z,7.30
2024-02-20T13:04:28.843Z,7.60
2024-02-20T13:06:58.369Z,7.80
2024-02-20T13:09:26.496Z,7.80
2024-02-20T13:12:00.835Z,7.80
2024-02-20T13:14:30.051Z,7.80
2024-02-20T13:16:58.172Z,7.70
2024-02-20T13:19:27.707Z,7.80
2024-02-20T13:21:55.833Z,7.70
2024-02-20T13:24:24.015Z,7.90
2024-02-20T13:26:54.499Z,7.90
2024-02-20T13:29:22.777Z,7.90
2024-02-20T13:31:50.927Z,8.00
2024-02-20T13:34:19.193Z,8.10
2024-02-20T13:36:48.675Z,8.10
2024-02-20T13:39:16.737Z,8.10
2024-02-20T13:41:44.813Z,8.10
2024-02-20T13:44:13.069Z,8.10
2024-02-20T13:46:41.369Z,8.10
2024-02-20T13:49:23.145Z,8.00
2024-02-20T13:51:52.756Z,8.00
2024-02-20T13:54:21.377Z,8.00
2024-02-20T13:56:49.552Z,7.90
2024-02-20T13:59:17.705Z,7.80
2024-02-20T14:01:45.805Z,7.90
2024-02-20T14:04:14.178Z,7.90
2024-02-20T14:06:42.495Z,7.80
2024-02-20T14:09:12.920Z,7.80
2024-02-20T14:11:41.877Z,7.80
2024-02-20T14:14:10.396Z,7.80
2024-02-20T14:16:40.188Z,7.80
2024-02-20T14:19:08.492Z,7.80
2024-02-20T14:21:36.585Z,7.80
2024-02-20T14:24:05.256Z,7.80
2024-02-20T14:26:34.798Z,7.80
2024-02-20T14:29:04.368Z,7.90
2024-02-20T14:31:32.570Z,7.80
2024-02-20T14:34:00.832Z,7.80
2024-02-20T14:36:28.958Z,7.70
2024-02-20T14:38:57.046Z,7.60
2024-02-20T14:41:25.268Z,7.70
2024-02-20T14:43:55.048Z,7.80
2024-02-20T14:46:23.441Z,7.90
2024-02-20T14:48:51.813Z,8.20
2024-02-20T14:51:22.098Z,8.40
2024-02-20T14:53:50.929Z,8.40
2024-02-20T14:56:19.120Z,8.30
2024-02-20T14:58:47.234Z,8.00
2024-02-20T15:01:24.367Z,7.90
2024-02-20T15:03:52.959Z,7.90
2024-02-20T15:06:22.824Z,8.00
2024-02-20T15:08:51.511Z,8.10
2024-02-20T15:11:20.993Z,8.20
2024-02-20T15:13:51.007Z,8.40
2024-02-20T15:16:20.799Z,8.50
2024-02-20T15:18:48.937Z,8.60
2024-02-20T15:21:17.250Z,8.60
2024-02-20T15:23:48.363Z,8.50
2024-02-20T15:26:16.689Z,8.40
2024-02-20T15:28:44.969Z,8.40
2024-02-20T15:31:13.182Z,8.40
2024-02-20T15:33:42.889Z,8.50
2024-02-20T15:36:11.710Z,8.50
2024-02-20T15:38:39.939Z,8.40
2024-02-20T15:41:08.252Z,8.30
2024-02-20T15:43:36.418Z,8.10
2024-02-20T15:46:05.095Z,8.20
2024-02-20T15:48:33.533Z,8.20
2024-02-20T15:51:04.853Z,8.30
2024-02-20T15:53:33.042Z,8.50
2024-02-20T15:56:01.233Z,8.50
2024-02-20T15:58:29.381Z,8.60
2024-02-20T16:00:57.524Z,8.50
2024-02-20T16:03:25.614Z,8.40
2024-02-20T16:05:54.196Z,8.40
2024-02-20T16:08:23.705Z,8.50
2024-02-20T16:11:00.812Z,8.50
2024-02-20T16:13:31.511Z,8.60
2024-02-20T16:15:59.653Z,8.70
2024-02-20T16:18:28.005Z,8.60
2024-02-20T16:21:00.826Z,8.50
2024-02-20T16:23:30.585Z,8.20
2024-02-20T16:25:59.399Z,8.10
2024-02-20T16:28:27.585Z,8.00
2024-02-20T16:30:55.693Z,7.80
2024-02-20T16:33:24.173Z,7.80
2024-02-20T16:35:53.174Z,7.70
2024-02-20T16:38:23.764Z,7.60
2024-02-20T16:40:53.807Z,7.60
2024-02-20T16:43:22.002Z,7.60
2024-02-20T16:45:50.057Z,7.60
2024-02-20T16:48:18.535Z,7.60
2024-02-20T16:50:46.614Z,7.60
2024-02-20T16:53:14.689Z,7.60
2024-02-20T16:55:42.897Z,7.70
2024-02-20T16:58:12.391Z,7.60
2024-02-20T17:00:40.584Z,7.60
2024-02-20T17:03:09.923Z,7.60
2024-02-20T17:05:38.450Z,7.40
2024-02-20T17:08:07.309Z,7.40
2024-02-20T17:10:37.608Z,7.30
2024-02-20T17:13:06.078Z,7.20
2024-02-20T17:15:35.749Z,7.20
2024-02-20T17:18:03.961Z,7.10
2024-02-20T17:20:32.054Z,7.20
2024-02-20T17:23:00.336Z,7.20
2024-02-20T17:25:28.577Z,7.20
2024-02-20T17:27:56.787Z,7.20
2024-02-20T17:30:24.831Z,7.20
2024-02-20T17:32:56.994Z,7.20
2024-02-20T17:35:26.655Z,7.30
2024-02-20T17:37:55.078Z,7.30
2024-02-20T17:40:23.338Z,7.30
2024-02-20T17:42:51.462Z,7.30
2024-02-20T17:45:23.985Z,7.30
2024-02-20T17:47:55.180Z,7.30
2024-02-20T17:50:23.379Z,7.20
2024-02-20T17:52:51.667Z,7.30
2024-02-20T17:55:24.506Z,7.20
2024-02-20T17:57:52.783Z,7.20
2024-02-20T18:00:21.572Z,7.20
2024-02-20T18:02:49.829Z,7.20
2024-02-20T18:05:19.615Z,7.10
2024-02-20T18:07:48.150Z,7.00
2024-02-20T18:10:16.481Z,7.00
2024-02-20T18:12:44.701Z,7.00
2024-02-20T18:15:13.078Z,6.90
2024-02-20T18:17:43.013Z,6.80
2024-02-20T18:20:13.848Z,6.80
2024-02-20T18:22:44.075Z,6.80
2024-02-20T18:25:12.345Z,6.70
2024-02-20T18:27:40.469Z,6.80
2024-02-20T18:30:11.292Z,6.70
2024-02-20T18:32:39.557Z,6.70
2024-02-20T18:35:09.085Z,6.70
2024-02-20T18:37:37.455Z,6.60
2024-02-20T18:40:09.751Z,6.50
2024-02-20T18:42:38.164Z,6.50
2024-02-20T18:45:07.775Z,6.50
2024-02-20T18:47:35.854Z,6.40
2024-02-20T18:50:05.696Z,6.40
2024-02-20T18:52:37.632Z,6.30
2024-02-20T18:55:09.245Z,6.20
2024-02-20T18:57:37.522Z,6.20
2024-02-20T19:00:08.306Z,6.20
2024-02-20T19:02:37.109Z,6.20
2024-02-20T19:05:06.063Z,6.10
2024-02-20T19:07:35.371Z,6.10
2024-02-20T19:10:04.781Z,6.10
2024-02-20T19:12:34.391Z,6.00
2024-02-20T19:15:02.607Z,6.00
2024-02-20T19:17:31.001Z,5.90
2024-02-20T19:19:59.466Z,5.90
2024-02-20T19:22:31.379Z,5.90
2024-02-20T19:25:01.063Z,5.90
2024-02-20T19:27:29.270Z,5.80
2024-02-20T19:29:58.788Z,5.80
2024-02-20T19:32:26.946Z,5.70
2024-02-20T19:34:55.214Z,5.70
2024-02-20T19:37:24.174Z,5.70
2024-02-20T19:39:52.430Z,5.70
2024-02-20T19:42:20.686Z,5.60
2024-02-20T19:44:48.892Z,5.60
2024-02-20T19:47:18.383Z,5.60
2024-02-20T19:49:47.321Z,5.60
2024-02-20T19:52:17.211Z,5.50
2024-02-20T19:54:45.848Z,5.50
2024-02-20T19:57:15.742Z,5.40
2024-02-20T19:59:43.851Z,5.40
2024-02-20T20:02:12.185Z,5.40
2024-02-20T20:04:41.810Z,5.40
2024-02-20T20:07:10.184Z,5.40
2024-02-20T20:09:41.431Z,5.30
2024-02-20T20:12:12.384Z,5.30
2024-02-20T20:14:40.543Z,5.30
2024-02-20T20:17:08.692Z,5.30
2024-02-20T20:19:37.332Z,5.20
2024-02-20T20:22:07.629Z,5.20
2024-02-20T20:24:35.752Z,5.20
2024-02-20T20:27:03.960Z,5.20
2024-02-20T20:29:33.235Z,5.20
2024-02-20T20:32:01.713Z,5.20
2024-02-20T20:34:30.032Z,5.10
2024-02-20T20:36:58.244Z,5.10
2024-02-20T20:39:27.742Z,5.10
2024-02-20T20:41:55.879Z,5.10
2024-02-20T20:44:26.309Z,5.10
2024-02-20T20:46:54.815Z,5.00
2024-02-20T20:49:23.206Z,5.00
2024-02-20T20:51:51.380Z,5.00
2024-02-20T20:54:19.492Z,5.00
2024-02-20T20:56:48.986Z,4.90
2024-02-20T20:59:17.214Z,5.00
2024-02-20T21:01:45.469Z,4.90
2024-02-20T21:04:13.722Z,4.80
2024-02-20T21:06:41.880Z,4.80
2024-02-20T21:09:10.012Z,4.80
2024-02-20T21:11:38.721Z,4.80
2024-02-20T21:14:08.849Z,4.80
2024-02-20T21:16:37.023Z,4.80
2024-02-20T21:19:05.248Z,4.80
2024-02-20T21:21:33.564Z,4.80
2024-02-20T21:24:04.072Z,4.80
2024-02-20T21:26:32.171Z,4.70
2024-02-20T21:29:00.341Z,4.80
2024-02-20T21:31:29.873Z,4.70
2024-02-20T21:33:58.330Z,4.70
2024-02-20T21:36:26.678Z,4.70
2024-02-20T21:38:54.780Z,4.70
2024-02-20T21:41:23.103Z,4.60
2024-02-20T21:43:51.302Z,4.60
2024-02-20T21:46:19.746Z,4.60
2024-02-20T21:48:50.718Z,4.60
2024-02-20T21:51:19.546Z,4.60
2024-02-20T21:53:47.714Z,4.60
2024-02-20T21:56:16.798Z,4.50
2024-02-20T21:58:45.836Z,4.50
2024-02-20T22:01:14.174Z,4.40
2024-02-20T22:03:42.434Z,4.50
2024-02-20T22:06:11.947Z,4.50
2024-02-20T22:08:40.220Z,4.50
2024-02-20T22:11:08.871Z,4.50
2024-02-20T22:13:37.720Z,4.50
2024-02-20T22:16:06.553Z,4.50
2024-02-20T22:18:34.883Z,4.50
2024-02-20T22:21:03.067Z,4.50
2024-02-20T22:23:32.511Z,4.40
2024-02-20T22:26:01.762Z,4.40
2024-02-20T22:28:30.098Z,4.30
2024-02-20T22:30:58.203Z,4.40
2024-02-20T22:33:26.876Z,4.40
2024-02-20T22:35:55.065Z,4.40
2024-02-20T22:38:23.257Z,4.40
2024-02-20T22:40:52.964Z,4.40
2024-02-20T22:43:21.205Z,4.40
2024-02-20T22:45:49.564Z,4.40
2024-02-20T22:48:17.823Z,4.40
2024-02-20T22:50:45.959Z,4.50
2024-02-20T22:53:14.245Z,4.50
2024-02-20T22:55:42.454Z,4.50
2024-02-20T22:58:13.057Z,4.60
2024-02-20T23:00:41.349Z,4.60
2024-02-20T23:03:09.480Z,4.60
2024-02-20T23:05:37.754Z,4.60
2024-02-20T23:08:06.551Z,4.70
2024-02-20T23:10:34.813Z,4.70
2024-02-20T23:13:22.516Z,4.70
2024-02-20T23:16:09.033Z,4.70
2024-02-20T23:18:55.887Z,4.70
2024-02-20T23:21:42.329Z,4.70
2024-02-20T23:24:28.757Z,4.80
2024-02-20T23:27:15.238Z,4.70
2024-02-20T23:30:04.749Z,4.70
2024-02-20T23:32:51.143Z,4.70
2024-02-20T23:35:37.878Z,4.70
2024-02-20T23:38:24.585Z,4.70
2024-02-20T23:41:10.961Z,4.70
2024-02-20T23:43:57.540Z,4.70
2024-02-20T23:46:45.746Z,4.70
2024-02-20T23:49:32.333Z,4.80
2024-02-20T23:52:19.413Z,4.70
2024-02-20T23:55:07.983Z,4.70
2024-02-20T23:57:54.769Z,4.70
